sensor_id;sensor_type;location;lat;lon;timestamp;temperature;humidity
28087;DHT22;15392;48.912;8.380;2024-03-17T00:01:24;13.60;53.70
28087;DHT22;15392;48.912;8.380;2024-03-17T00:04:10;13.60;53.50
28087;DHT22;15392;48.912;8.380;2024-03-17T00:06:56;13.60;53.30
28087;DHT22;15392;48.912;8.380;2024-03-17T00:09:42;13.60;53.10
28087;DHT22;15392;48.912;8.380;2024-03-17T00:12:28;13.50;53.00
28087;DHT22;15392;48.912;8.380;2024-03-17T00:15:14;13.50;53.10
28087;DHT22;15392;48.912;8.380;2024-03-17T00:18:00;13.50;53.30
28087;DHT22;15392;48.912;8.380;2024-03-17T00:20:46;13.50;53.30
28087;DHT22;15392;48.912;8.380;2024-03-17T00:23:32;13.40;53.20
28087;DHT22;15392;48.912;8.380;2024-03-17T00:26:19;13.50;53.30
28087;DHT22;15392;48.912;8.380;2024-03-17T00:29:05;13.40;53.30
28087;DHT22;15392;48.912;8.380;2024-03-17T00:31:52;13.50;54.00
28087;DHT22;15392;48.912;8.380;2024-03-17T00:34:38;13.50;53.40
28087;DHT22;15392;48.912;8.380;2024-03-17T00:37:24;13.50;53.40
28087;DHT22;15392;48.912;8.380;2024-03-17T00:40:10;13.50;53.50
28087;DHT22;15392;48.912;8.380;2024-03-17T00:42:57;13.50;53.60
28087;DHT22;15392;48.912;8.380;2024-03-17T00:45:43;13.50;53.60
28087;DHT22;15392;48.912;8.380;2024-03-17T00:48:29;13.50;53.50
28087;DHT22;15392;48.912;8.380;2024-03-17T00:51:16;13.50;53.60
28087;DHT22;15392;48.912;8.380;2024-03-17T00:54:02;13.50;53.60
28087;DHT22;15392;48.912;8.380;2024-03-17T00:56:48;13.50;53.50
28087;DHT22;15392;48.912;8.380;2024-03-17T00:59:34;13.50;53.40
28087;DHT22;15392;48.912;8.380;2024-03-17T01:02:20;13.40;53.30
28087;DHT22;15392;48.912;8.380;2024-03-17T01:05:07;13.40;53.30
28087;DHT22;15392;48.912;8.380;2024-03-17T01:07:53;13.40;53.30
28087;DHT22;15392;48.912;8.380;2024-03-17T01:10:43;13.40;53.40
28087;DHT22;15392;48.912;8.380;2024-03-17T01:13:30;13.40;53.50
28087;DHT22;15392;48.912;8.380;2024-03-17T01:16:16;13.40;53.60
28087;DHT22;15392;48.912;8.380;2024-03-17T01:19:02;13.30;53.60
28087;DHT22;15392;48.912;8.380;2024-03-17T01:21:48;13.30;53.50
28087;DHT22;15392;48.912;8.380;2024-03-17T01:24:34;13.30;53.50
28087;DHT22;15392;48.912;8.380;2024-03-17T01:27:20;13.30;53.50
28087;DHT22;15392;48.912;8.380;2024-03-17T01:30:07;13.20;53.50
28087;DHT22;15392;48.912;8.380;2024-03-17T01:32:54;13.30;53.60
28087;DHT22;15392;48.912;8.380;2024-03-17T01:35:40;13.20;53.60
28087;DHT22;15392;48.912;8.380;2024-03-17T01:38:26;13.20;53.60
28087;DHT22;15392;48.912;8.380;2024-03-17T01:41:12;13.20;53.60
28087;DHT22;15392;48.912;8.380;2024-03-17T01:43:59;13.20;53.70
28087;DHT22;15392;48.912;8.380;2024-03-17T01:46:45;13.20;53.90
28087;DHT22;15392;48.912;8.380;2024-03-17T01:49:31;13.20;53.90
28087;DHT22;15392;48.912;8.380;2024-03-17T01:52:19;13.20;53.90
28087;DHT22;15392;48.912;8.380;2024-03-17T01:55:06;13.20;53.90
28087;DHT22;15392;48.912;8.380;2024-03-17T01:57:53;13.10;53.70
28087;DHT22;15392;48.912;8.380;2024-03-17T02:00:39;13.10;53.60
28087;DHT22;15392;48.912;8.380;2024-03-17T02:03:25;13.10;53.60
28087;DHT22;15392;48.912;8.380;2024-03-17T02:06:12;13.10;53.70
28087;DHT22;15392;48.912;8.380;2024-03-17T02:08:58;13.10;53.70
28087;DHT22;15392;48.912;8.380;2024-03-17T02:11:45;13.10;53.70
28087;DHT22;15392;48.912;8.380;2024-03-17T02:14:31;13.10;53.70
28087;DHT22;15392;48.912;8.380;2024-03-17T02:17:17;13.10;53.80
28087;DHT22;15392;48.912;8.380;2024-03-17T02:20:04;13.10;53.90
28087;DHT22;15392;48.912;8.380;2024-03-17T02:22:53;13.00;53.80
28087;DHT22;15392;48.912;8.380;2024-03-17T02:25:39;13.10;53.90
28087;DHT22;15392;48.912;8.380;2024-03-17T02:28:25;13.10;53.90
28087;DHT22;15392;48.912;8.380;2024-03-17T02:31:13;13.10;53.80
28087;DHT22;15392;48.912;8.380;2024-03-17T02:34:01;13.00;53.70
28087;DHT22;15392;48.912;8.380;2024-03-17T02:36:47;13.00;53.60
28087;DHT22;15392;48.912;8.380;2024-03-17T02:39:34;13.00;53.70
28087;DHT22;15392;48.912;8.380;2024-03-17T02:42:20;13.00;53.70
28087;DHT22;15392;48.912;8.380;2024-03-17T02:45:06;13.00;53.70
28087;DHT22;15392;48.912;8.380;2024-03-17T02:47:54;13.00;53.70
28087;DHT22;15392;48.912;8.380;2024-03-17T02:50:40;12.90;53.70
28087;DHT22;15392;48.912;8.380;2024-03-17T02:53:26;12.90;53.60
28087;DHT22;15392;48.912;8.380;2024-03-17T02:56:13;12.90;53.60
28087;DHT22;15392;48.912;8.380;2024-03-17T02:59:03;12.90;53.60
28087;DHT22;15392;48.912;8.380;2024-03-17T03:01:49;12.90;53.60
28087;DHT22;15392;48.912;8.380;2024-03-17T03:04:35;12.90;53.60
28087;DHT22;15392;48.912;8.380;2024-03-17T03:07:21;12.90;53.60
28087;DHT22;15392;48.912;8.380;2024-03-17T03:10:07;12.80;53.70
28087;DHT22;15392;48.912;8.380;2024-03-17T03:12:53;12.80;53.90
28087;DHT22;15392;48.912;8.380;2024-03-17T03:15:39;12.80;53.70
28087;DHT22;15392;48.912;8.380;2024-03-17T03:18:25;12.80;53.70
28087;DHT22;15392;48.912;8.380;2024-03-17T03:21:11;12.70;53.60
28087;DHT22;15392;48.912;8.380;2024-03-17T03:24:00;12.70;53.70
28087;DHT22;15392;48.912;8.380;2024-03-17T03:26:47;12.70;53.70
28087;DHT22;15392;48.912;8.380;2024-03-17T03:29:34;12.70;53.70
28087;DHT22;15392;48.912;8.380;2024-03-17T03:32:20;12.70;53.80
28087;DHT22;15392;48.912;8.380;2024-03-17T03:35:06;12.70;53.80
28087;DHT22;15392;48.912;8.380;2024-03-17T03:37:52;12.60;53.80
28087;DHT22;15392;48.912;8.380;2024-03-17T03:40:38;12.60;53.80
28087;DHT22;15392;48.912;8.380;2024-03-17T03:43:25;12.60;53.70
28087;DHT22;15392;48.912;8.380;2024-03-17T03:46:13;12.60;53.60
28087;DHT22;15392;48.912;8.380;2024-03-17T03:49:00;12.60;53.60
28087;DHT22;15392;48.912;8.380;2024-03-17T03:51:46;12.50;53.60
28087;DHT22;15392;48.912;8.380;2024-03-17T03:54:32;12.50;53.70
28087;DHT22;15392;48.912;8.380;2024-03-17T03:57:19;12.50;53.80
28087;DHT22;15392;48.912;8.380;2024-03-17T04:00:05;12.40;53.80
28087;DHT22;15392;48.912;8.380;2024-03-17T04:03:01;12.40;53.80
28087;DHT22;15392;48.912;8.380;2024-03-17T04:05:47;12.40;53.90
28087;DHT22;15392;48.912;8.380;2024-03-17T04:08:34;12.40;54.00
28087;DHT22;15392;48.912;8.380;2024-03-17T04:11:20;12.40;54.00
28087;DHT22;15392;48.912;8.380;2024-03-17T04:14:06;12.40;54.00
28087;DHT22;15392;48.912;8.380;2024-03-17T04:16:52;12.40;54.00
28087;DHT22;15392;48.912;8.380;2024-03-17T04:19:38;12.40;54.00
28087;DHT22;15392;48.912;8.380;2024-03-17T04:22:25;12.40;54.10
28087;DHT22;15392;48.912;8.380;2024-03-17T04:25:12;12.40;54.20
28087;DHT22;15392;48.912;8.380;2024-03-17T04:27:58;12.40;54.30
28087;DHT22;15392;48.912;8.380;2024-03-17T04:30:44;12.40;54.30
28087;DHT22;15392;48.912;8.380;2024-03-17T04:33:32;12.40;54.20
28087;DHT22;15392;48.912;8.380;2024-03-17T04:36:18;12.40;54.10
28087;DHT22;15392;48.912;8.380;2024-03-17T04:39:04;12.40;54.00
28087;DHT22;15392;48.912;8.380;2024-03-17T04:41:53;12.40;53.90
28087;DHT22;15392;48.912;8.380;2024-03-17T04:44:40;12.30;53.90
28087;DHT22;15392;48.912;8.380;2024-03-17T04:47:27;12.30;53.90
28087;DHT22;15392;48.912;8.380;2024-03-17T04:50:13;12.30;53.90
28087;DHT22;15392;48.912;8.380;2024-03-17T04:52:59;12.30;54.00
28087;DHT22;15392;48.912;8.380;2024-03-17T04:55:45;12.30;54.00
28087;DHT22;15392;48.912;8.380;2024-03-17T04:58:32;12.30;54.00
28087;DHT22;15392;48.912;8.380;2024-03-17T05:01:18;12.20;54.00
28087;DHT22;15392;48.912;8.380;2024-03-17T05:04:05;12.20;53.90
28087;DHT22;15392;48.912;8.380;2024-03-17T05:06:51;12.20;53.90
28087;DHT22;15392;48.912;8.380;2024-03-17T05:09:37;12.20;53.90
28087;DHT22;15392;48.912;8.380;2024-03-17T05:12:23;12.10;53.70
28087;DHT22;15392;48.912;8.380;2024-03-17T05:15:09;12.10;53.80
28087;DHT22;15392;48.912;8.380;2024-03-17T05:17:55;12.10;53.80
28087;DHT22;15392;48.912;8.380;2024-03-17T05:20:42;12.10;53.90
28087;DHT22;15392;48.912;8.380;2024-03-17T05:23:33;12.00;54.00
28087;DHT22;15392;48.912;8.380;2024-03-17T05:26:19;12.00;54.00
28087;DHT22;15392;48.912;8.380;2024-03-17T05:29:05;12.00;54.00
28087;DHT22;15392;48.912;8.380;2024-03-17T05:31:51;12.00;54.00
28087;DHT22;15392;48.912;8.380;2024-03-17T05:34:38;12.00;54.00
28087;DHT22;15392;48.912;8.380;2024-03-17T05:37:24;12.00;54.00
28087;DHT22;15392;48.912;8.380;2024-03-17T05:40:10;12.00;54.00
28087;DHT22;15392;48.912;8.380;2024-03-17T05:43:00;11.90;53.90
28087;DHT22;15392;48.912;8.380;2024-03-17T05:45:46;11.90;53.90
28087;DHT22;15392;48.912;8.380;2024-03-17T05:48:35;11.90;54.00
28087;DHT22;15392;48.912;8.380;2024-03-17T05:51:25;11.90;54.10
28087;DHT22;15392;48.912;8.380;2024-03-17T05:54:13;11.90;53.90
28087;DHT22;15392;48.912;8.380;2024-03-17T05:56:59;11.80;53.80
28087;DHT22;15392;48.912;8.380;2024-03-17T05:59:45;11.80;53.80
28087;DHT22;15392;48.912;8.380;2024-03-17T06:02:31;11.80;53.90
28087;DHT22;15392;48.912;8.380;2024-03-17T06:05:17;11.80;53.90
28087;DHT22;15392;48.912;8.380;2024-03-17T06:08:05;11.80;54.00
28087;DHT22;15392;48.912;8.380;2024-03-17T06:10:51;11.80;54.10
28087;DHT22;15392;48.912;8.380;2024-03-17T06:13:37;11.80;54.10
28087;DHT22;15392;48.912;8.380;2024-03-17T06:16:23;11.80;54.20
28087;DHT22;15392;48.912;8.380;2024-03-17T06:19:09;11.80;54.40
28087;DHT22;15392;48.912;8.380;2024-03-17T06:21:55;11.80;54.50
28087;DHT22;15392;48.912;8.380;2024-03-17T06:24:42;11.80;54.50
28087;DHT22;15392;48.912;8.380;2024-03-17T06:27:28;11.90;54.40
28087;DHT22;15392;48.912;8.380;2024-03-17T06:30:14;11.90;54.30
28087;DHT22;15392;48.912;8.380;2024-03-17T06:33:00;11.90;54.20
28087;DHT22;15392;48.912;8.380;2024-03-17T06:35:47;11.90;54.10
28087;DHT22;15392;48.912;8.380;2024-03-17T06:38:33;11.90;54.20
28087;DHT22;15392;48.912;8.380;2024-03-17T06:41:20;11.90;54.40
28087;DHT22;15392;48.912;8.380;2024-03-17T06:44:06;11.90;54.40
28087;DHT22;15392;48.912;8.380;2024-03-17T06:46:52;11.90;55.00
28087;DHT22;15392;48.912;8.380;2024-03-17T06:49:38;12.00;54.40
28087;DHT22;15392;48.912;8.380;2024-03-17T06:52:24;11.90;54.50
28087;DHT22;15392;48.912;8.380;2024-03-17T06:55:10;12.00;55.10
28087;DHT22;15392;48.912;8.380;2024-03-17T06:57:58;12.00;54.60
28087;DHT22;15392;48.912;8.380;2024-03-17T07:00:44;12.10;54.60
28087;DHT22;15392;48.912;8.380;2024-03-17T07:03:38;12.10;54.60
28087;DHT22;15392;48.912;8.380;2024-03-17T07:06:24;12.20;54.70
28087;DHT22;15392;48.912;8.380;2024-03-17T07:09:12;12.20;54.60
28087;DHT22;15392;48.912;8.380;2024-03-17T07:11:58;12.30;54.60
28087;DHT22;15392;48.912;8.380;2024-03-17T07:14:44;12.30;54.60
28087;DHT22;15392;48.912;8.380;2024-03-17T07:17:30;12.40;54.70
28087;DHT22;15392;48.912;8.380;2024-03-17T07:20:16;12.50;54.70
28087;DHT22;15392;48.912;8.380;2024-03-17T07:23:02;12.50;54.70
28087;DHT22;15392;48.912;8.380;2024-03-17T07:25:55;12.60;54.60
28087;DHT22;15392;48.912;8.380;2024-03-17T07:28:42;12.70;54.70
28087;DHT22;15392;48.912;8.380;2024-03-17T07:31:30;12.70;54.50
28087;DHT22;15392;48.912;8.380;2024-03-17T07:34:16;12.80;54.40
28087;DHT22;15392;48.912;8.380;2024-03-17T07:37:02;12.80;54.40
28087;DHT22;15392;48.912;8.380;2024-03-17T07:39:49;12.90;54.50
28087;DHT22;15392;48.912;8.380;2024-03-17T07:42:35;13.00;54.50
28087;DHT22;15392;48.912;8.380;2024-03-17T07:45:22;13.00;54.50
28087;DHT22;15392;48.912;8.380;2024-03-17T07:48:08;13.10;54.50
28087;DHT22;15392;48.912;8.380;2024-03-17T07:50:58;13.10;54.40
28087;DHT22;15392;48.912;8.380;2024-03-17T07:53:54;13.20;54.40
28087;DHT22;15392;48.912;8.380;2024-03-17T07:56:40;13.20;54.30
28087;DHT22;15392;48.912;8.380;2024-03-17T07:59:26;13.30;54.20
28087;DHT22;15392;48.912;8.380;2024-03-17T08:02:13;13.30;54.30
28087;DHT22;15392;48.912;8.380;2024-03-17T08:04:59;13.40;54.30
28087;DHT22;15392;48.912;8.380;2024-03-17T08:07:46;13.40;54.30
28087;DHT22;15392;48.912;8.380;2024-03-17T08:10:32;13.50;54.40
28087;DHT22;15392;48.912;8.380;2024-03-17T08:13:18;13.60;54.30
28087;DHT22;15392;48.912;8.380;2024-03-17T08:16:06;13.70;54.30
28087;DHT22;15392;48.912;8.380;2024-03-17T08:18:54;13.80;54.30
28087;DHT22;15392;48.912;8.380;2024-03-17T08:21:40;13.80;54.20
28087;DHT22;15392;48.912;8.380;2024-03-17T08:24:26;13.90;54.10
28087;DHT22;15392;48.912;8.380;2024-03-17T08:27:12;14.00;54.00
28087;DHT22;15392;48.912;8.380;2024-03-17T08:29:58;14.10;54.50
28087;DHT22;15392;48.912;8.380;2024-03-17T08:32:44;14.10;53.80
28087;DHT22;15392;48.912;8.380;2024-03-17T08:35:30;14.20;53.80
28087;DHT22;15392;48.912;8.380;2024-03-17T08:38:16;14.30;53.80
28087;DHT22;15392;48.912;8.380;2024-03-17T08:41:06;14.40;53.70
28087;DHT22;15392;48.912;8.380;2024-03-17T08:43:54;14.50;53.70
28087;DHT22;15392;48.912;8.380;2024-03-17T08:46:40;14.60;53.60
28087;DHT22;15392;48.912;8.380;2024-03-17T08:49:26;14.70;53.70
28087;DHT22;15392;48.912;8.380;2024-03-17T08:52:12;14.80;53.70
28087;DHT22;15392;48.912;8.380;2024-03-17T08:54:58;15.00;54.00
28087;DHT22;15392;48.912;8.380;2024-03-17T08:57:44;15.20;54.10
28087;DHT22;15392;48.912;8.380;2024-03-17T09:00:31;15.50;54.20
28087;DHT22;15392;48.912;8.380;2024-03-17T09:03:18;15.80;54.20
28087;DHT22;15392;48.912;8.380;2024-03-17T09:06:12;16.10;54.00
28087;DHT22;15392;48.912;8.380;2024-03-17T09:09:01;16.40;53.70
28087;DHT22;15392;48.912;8.380;2024-03-17T09:11:48;16.60;53.30
28087;DHT22;15392;48.912;8.380;2024-03-17T09:14:35;16.90;52.90
28087;DHT22;15392;48.912;8.380;2024-03-17T09:17:21;17.10;52.40
28087;DHT22;15392;48.912;8.380;2024-03-17T09:20:10;17.20;52.00
28087;DHT22;15392;48.912;8.380;2024-03-17T09:22:58;17.30;51.80
28087;DHT22;15392;48.912;8.380;2024-03-17T09:25:57;17.40;51.80
28087;DHT22;15392;48.912;8.380;2024-03-17T09:28:44;17.50;51.50
28087;DHT22;15392;48.912;8.380;2024-03-17T09:31:33;17.70;51.80
28087;DHT22;15392;48.912;8.380;2024-03-17T09:34:21;17.90;52.30
28087;DHT22;15392;48.912;8.380;2024-03-17T09:37:07;18.20;52.70
28087;DHT22;15392;48.912;8.380;2024-03-17T09:39:53;18.60;52.50
28087;DHT22;15392;48.912;8.380;2024-03-17T09:42:42;18.90;52.10
28087;DHT22;15392;48.912;8.380;2024-03-17T09:45:29;19.10;51.50
28087;DHT22;15392;48.912;8.380;2024-03-17T09:48:19;19.30;51.10
28087;DHT22;15392;48.912;8.380;2024-03-17T09:51:05;19.50;51.00
28087;DHT22;15392;48.912;8.380;2024-03-17T09:53:51;19.70;51.50
28087;DHT22;15392;48.912;8.380;2024-03-17T09:56:38;19.90;50.70
28087;DHT22;15392;48.912;8.380;2024-03-17T09:59:24;20.10;50.70
28087;DHT22;15392;48.912;8.380;2024-03-17T10:02:16;20.30;50.50
28087;DHT22;15392;48.912;8.380;2024-03-17T10:08:21;20.80;49.80
28087;DHT22;15392;48.912;8.380;2024-03-17T10:11:07;21.00;49.40
28087;DHT22;15392;48.912;8.380;2024-03-17T10:16:48;21.40;48.80
28087;DHT22;15392;48.912;8.380;2024-03-17T10:19:36;21.50;49.30
28087;DHT22;15392;48.912;8.380;2024-03-17T10:22:25;21.60;49.20
28087;DHT22;15392;48.912;8.380;2024-03-17T10:25:11;21.70;49.10
28087;DHT22;15392;48.912;8.380;2024-03-17T10:27:57;21.80;49.00
28087;DHT22;15392;48.912;8.380;2024-03-17T10:31:00;21.80;48.70
28087;DHT22;15392;48.912;8.380;2024-03-17T10:33:46;21.80;47.80
28087;DHT22;15392;48.912;8.380;2024-03-17T10:36:46;21.80;48.50
28087;DHT22;15392;48.912;8.380;2024-03-17T10:39:33;21.80;48.60
28087;DHT22;15392;48.912;8.380;2024-03-17T10:42:29;21.80;48.50
28087;DHT22;15392;48.912;8.380;2024-03-17T10:45:17;21.90;47.80
28087;DHT22;15392;48.912;8.380;2024-03-17T10:48:03;21.80;48.50
28087;DHT22;15392;48.912;8.380;2024-03-17T10:50:57;21.90;48.70
28087;DHT22;15392;48.912;8.380;2024-03-17T10:53:46;21.90;48.30
28087;DHT22;15392;48.912;8.380;2024-03-17T10:56:32;21.90;48.30
28087;DHT22;15392;48.912;8.380;2024-03-17T10:59:39;21.90;48.30
28087;DHT22;15392;48.912;8.380;2024-03-17T11:02:28;21.90;48.00
28087;DHT22;15392;48.912;8.380;2024-03-17T11:08:15;22.00;48.60
28087;DHT22;15392;48.912;8.380;2024-03-17T11:11:02;22.00;48.30
28087;DHT22;15392;48.912;8.380;2024-03-17T11:13:49;22.00;48.60
28087;DHT22;15392;48.912;8.380;2024-03-17T11:16:36;22.10;48.60
28087;DHT22;15392;48.912;8.380;2024-03-17T11:19:22;22.10;48.10
28087;DHT22;15392;48.912;8.380;2024-03-17T11:22:43;22.00;48.00
28087;DHT22;15392;48.912;8.380;2024-03-17T11:25:37;22.00;47.10
28087;DHT22;15392;48.912;8.380;2024-03-17T11:31:45;21.80;47.00
28087;DHT22;15392;48.912;8.380;2024-03-17T11:34:36;21.70;47.40
28087;DHT22;15392;48.912;8.380;2024-03-17T11:37:42;21.70;48.10
28087;DHT22;15392;48.912;8.380;2024-03-17T11:40:28;21.60;47.30
28087;DHT22;15392;48.912;8.380;2024-03-17T11:43:17;21.50;48.30
28087;DHT22;15392;48.912;8.380;2024-03-17T11:46:03;21.40;47.90
28087;DHT22;15392;48.912;8.380;2024-03-17T11:48:49;21.40;48.10
28087;DHT22;15392;48.912;8.380;2024-03-17T11:51:38;21.30;48.30
28087;DHT22;15392;48.912;8.380;2024-03-17T11:54:28;21.20;48.20
28087;DHT22;15392;48.912;8.380;2024-03-17T11:57:22;21.20;48.40
28087;DHT22;15392;48.912;8.380;2024-03-17T12:00:20;21.10;48.50
28087;DHT22;15392;48.912;8.380;2024-03-17T12:03:10;21.10;48.20
28087;DHT22;15392;48.912;8.380;2024-03-17T12:05:57;21.00;48.70
28087;DHT22;15392;48.912;8.380;2024-03-17T12:08:43;21.00;49.00
28087;DHT22;15392;48.912;8.380;2024-03-17T12:11:30;20.90;49.10
28087;DHT22;15392;48.912;8.380;2024-03-17T12:14:20;20.90;49.30
28087;DHT22;15392;48.912;8.380;2024-03-17T12:17:08;20.90;49.10
28087;DHT22;15392;48.912;8.380;2024-03-17T12:19:55;20.80;48.80
28087;DHT22;15392;48.912;8.380;2024-03-17T12:22:42;20.80;48.80
28087;DHT22;15392;48.912;8.380;2024-03-17T12:25:28;20.70;48.20
28087;DHT22;15392;48.912;8.380;2024-03-17T12:28:18;20.70;48.70
28087;DHT22;15392;48.912;8.380;2024-03-17T12:31:04;20.70;48.80
28087;DHT22;15392;48.912;8.380;2024-03-17T12:33:51;20.60;49.10
28087;DHT22;15392;48.912;8.380;2024-03-17T12:36:38;20.60;49.20
28087;DHT22;15392;48.912;8.380;2024-03-17T12:39:32;20.60;49.10
28087;DHT22;15392;48.912;8.380;2024-03-17T12:42:29;20.60;49.00
28087;DHT22;15392;48.912;8.380;2024-03-17T12:45:25;20.70;48.70
28087;DHT22;15392;48.912;8.380;2024-03-17T12:48:14;20.70;49.10
28087;DHT22;15392;48.912;8.380;2024-03-17T12:51:00;20.70;49.00
28087;DHT22;15392;48.912;8.380;2024-03-17T12:53:47;20.70;49.40
28087;DHT22;15392;48.912;8.380;2024-03-17T12:56:33;20.70;49.00
28087;DHT22;15392;48.912;8.380;2024-03-17T12:59:41;20.70;49.20
28087;DHT22;15392;48.912;8.380;2024-03-17T13:02:46;20.70;48.60
28087;DHT22;15392;48.912;8.380;2024-03-17T13:05:34;20.70;49.00
28087;DHT22;15392;48.912;8.380;2024-03-17T13:08:20;20.70;48.70
28087;DHT22;15392;48.912;8.380;2024-03-17T13:11:08;20.70;48.70
28087;DHT22;15392;48.912;8.380;2024-03-17T13:13:55;20.70;48.30
28087;DHT22;15392;48.912;8.380;2024-03-17T13:16:41;20.70;48.80
28087;DHT22;15392;48.912;8.380;2024-03-17T13:19:27;20.60;48.90
28087;DHT22;15392;48.912;8.380;2024-03-17T13:22:13;20.60;49.00
28087;DHT22;15392;48.912;8.380;2024-03-17T13:24:59;20.50;49.10
28087;DHT22;15392;48.912;8.380;2024-03-17T13:27:46;20.50;49.10
28087;DHT22;15392;48.912;8.380;2024-03-17T13:30:33;20.50;49.00
28087;DHT22;15392;48.912;8.380;2024-03-17T13:33:21;20.50;49.20
28087;DHT22;15392;48.912;8.380;2024-03-17T13:36:09;20.50;49.00
28087;DHT22;15392;48.912;8.380;2024-03-17T13:38:55;20.50;49.10
28087;DHT22;15392;48.912;8.380;2024-03-17T13:41:41;20.50;49.10
28087;DHT22;15392;48.912;8.380;2024-03-17T13:44:28;20.50;49.20
28087;DHT22;15392;48.912;8.380;2024-03-17T13:47:17;20.50;49.20
28087;DHT22;15392;48.912;8.380;2024-03-17T13:50:04;20.50;49.20
28087;DHT22;15392;48.912;8.380;2024-03-17T13:52:56;20.50;49.30
28087;DHT22;15392;48.912;8.380;2024-03-17T13:55:42;20.50;49.30
28087;DHT22;15392;48.912;8.380;2024-03-17T13:58:28;20.50;49.30
28087;DHT22;15392;48.912;8.380;2024-03-17T14:01:14;20.50;49.00
28087;DHT22;15392;48.912;8.380;2024-03-17T14:04:00;20.50;49.10
28087;DHT22;15392;48.912;8.380;2024-03-17T14:06:47;20.50;49.10
28087;DHT22;15392;48.912;8.380;2024-03-17T14:09:38;20.50;49.10
28087;DHT22;15392;48.912;8.380;2024-03-17T14:12:27;20.50;49.00
28087;DHT22;15392;48.912;8.380;2024-03-17T14:15:28;20.50;49.20
28087;DHT22;15392;48.912;8.380;2024-03-17T14:18:14;20.40;49.20
28087;DHT22;15392;48.912;8.380;2024-03-17T14:21:00;20.50;49.30
28087;DHT22;15392;48.912;8.380;2024-03-17T14:23:56;20.40;49.30
28087;DHT22;15392;48.912;8.380;2024-03-17T14:26:48;20.40;49.00
28087;DHT22;15392;48.912;8.380;2024-03-17T14:29:34;20.40;49.00
28087;DHT22;15392;48.912;8.380;2024-03-17T14:32:20;20.40;49.00
28087;DHT22;15392;48.912;8.380;2024-03-17T14:35:12;20.40;49.20
28087;DHT22;15392;48.912;8.380;2024-03-17T14:38:02;20.40;49.00
28087;DHT22;15392;48.912;8.380;2024-03-17T14:40:52;20.40;49.20
28087;DHT22;15392;48.912;8.380;2024-03-17T14:43:42;20.40;49.20
28087;DHT22;15392;48.912;8.380;2024-03-17T14:46:29;20.40;49.20
28087;DHT22;15392;48.912;8.380;2024-03-17T14:49:15;20.40;49.10
28087;DHT22;15392;48.912;8.380;2024-03-17T14:52:01;20.40;48.90
28087;DHT22;15392;48.912;8.380;2024-03-17T14:54:48;20.40;49.00
28087;DHT22;15392;48.912;8.380;2024-03-17T14:57:34;20.40;49.00
28087;DHT22;15392;48.912;8.380;2024-03-17T15:00:20;20.40;49.30
28087;DHT22;15392;48.912;8.380;2024-03-17T15:03:08;20.30;48.80
28087;DHT22;15392;48.912;8.380;2024-03-17T15:06:08;20.30;49.00
28087;DHT22;15392;48.912;8.380;2024-03-17T15:09:02;20.30;48.90
28087;DHT22;15392;48.912;8.380;2024-03-17T15:11:49;20.20;49.20
28087;DHT22;15392;48.912;8.380;2024-03-17T15:14:37;20.20;49.00
28087;DHT22;15392;48.912;8.380;2024-03-17T15:17:24;20.20;49.00
28087;DHT22;15392;48.912;8.380;2024-03-17T15:20:11;20.20;49.30
28087;DHT22;15392;48.912;8.380;2024-03-17T15:23:07;20.10;49.10
28087;DHT22;15392;48.912;8.380;2024-03-17T15:25:53;20.10;49.00
28087;DHT22;15392;48.912;8.380;2024-03-17T15:28:41;20.10;49.10
28087;DHT22;15392;48.912;8.380;2024-03-17T15:31:28;20.00;49.20
28087;DHT22;15392;48.912;8.380;2024-03-17T15:34:17;20.00;49.20
28087;DHT22;15392;48.912;8.380;2024-03-17T15:37:04;19.90;49.00
28087;DHT22;15392;48.912;8.380;2024-03-17T15:39:51;19.90;49.30
28087;DHT22;15392;48.912;8.380;2024-03-17T15:42:43;19.90;49.30
28087;DHT22;15392;48.912;8.380;2024-03-17T15:45:31;19.90;49.30
28087;DHT22;15392;48.912;8.380;2024-03-17T15:48:21;19.90;49.40
28087;DHT22;15392;48.912;8.380;2024-03-17T15:51:07;19.80;49.50
28087;DHT22;15392;48.912;8.380;2024-03-17T15:53:53;19.80;49.50
28087;DHT22;15392;48.912;8.380;2024-03-17T15:56:39;19.80;49.40
28087;DHT22;15392;48.912;8.380;2024-03-17T15:59:26;19.80;49.50
28087;DHT22;15392;48.912;8.380;2024-03-17T16:02:12;19.70;49.50
28087;DHT22;15392;48.912;8.380;2024-03-17T16:04:58;19.80;49.40
28087;DHT22;15392;48.912;8.380;2024-03-17T16:07:47;19.70;49.20
28087;DHT22;15392;48.912;8.380;2024-03-17T16:10:33;19.70;49.40
28087;DHT22;15392;48.912;8.380;2024-03-17T16:13:22;19.70;49.60
28087;DHT22;15392;48.912;8.380;2024-03-17T16:16:16;19.70;49.50
28087;DHT22;15392;48.912;8.380;2024-03-17T16:19:04;19.70;49.50
28087;DHT22;15392;48.912;8.380;2024-03-17T16:21:52;19.70;49.70
28087;DHT22;15392;48.912;8.380;2024-03-17T16:24:42;19.60;49.40
28087;DHT22;15392;48.912;8.380;2024-03-17T16:27:28;19.60;49.50
28087;DHT22;15392;48.912;8.380;2024-03-17T16:30:16;19.60;49.70
28087;DHT22;15392;48.912;8.380;2024-03-17T16:33:03;19.60;49.80
28087;DHT22;15392;48.912;8.380;2024-03-17T16:35:51;19.60;50.00
28087;DHT22;15392;48.912;8.380;2024-03-17T16:38:39;19.60;50.00
28087;DHT22;15392;48.912;8.380;2024-03-17T16:41:25;19.60;49.90
28087;DHT22;15392;48.912;8.380;2024-03-17T16:44:24;19.50;49.90
28087;DHT22;15392;48.912;8.380;2024-03-17T16:50:14;19.50;49.70
28087;DHT22;15392;48.912;8.380;2024-03-17T16:53:00;19.40;49.70
28087;DHT22;15392;48.912;8.380;2024-03-17T16:55:46;19.40;49.80
28087;DHT22;15392;48.912;8.380;2024-03-17T16:58:34;19.40;49.80
28087;DHT22;15392;48.912;8.380;2024-03-17T17:01:20;19.40;49.90
28087;DHT22;15392;48.912;8.380;2024-03-17T17:04:09;19.30;50.50
28087;DHT22;15392;48.912;8.380;2024-03-17T17:06:55;19.30;49.90
28087;DHT22;15392;48.912;8.380;2024-03-17T17:09:42;19.30;50.10
28087;DHT22;15392;48.912;8.380;2024-03-17T17:12:28;19.20;50.10
28087;DHT22;15392;48.912;8.380;2024-03-17T17:15:16;19.20;50.10
28087;DHT22;15392;48.912;8.380;2024-03-17T17:18:05;19.20;50.10
28087;DHT22;15392;48.912;8.380;2024-03-17T17:20:53;19.10;50.10
28087;DHT22;15392;48.912;8.380;2024-03-17T17:23:39;19.00;50.20
28087;DHT22;15392;48.912;8.380;2024-03-17T17:26:27;19.00;50.20
28087;DHT22;15392;48.912;8.380;2024-03-17T17:29:14;18.90;50.30
28087;DHT22;15392;48.912;8.380;2024-03-17T17:32:00;18.90;50.30
28087;DHT22;15392;48.912;8.380;2024-03-17T17:34:46;18.80;50.20
28087;DHT22;15392;48.912;8.380;2024-03-17T17:37:33;18.70;50.30
28087;DHT22;15392;48.912;8.380;2024-03-17T17:40:22;18.70;50.40
28087;DHT22;15392;48.912;8.380;2024-03-17T17:43:08;18.60;50.40
28087;DHT22;15392;48.912;8.380;2024-03-17T17:45:55;18.50;50.40
28087;DHT22;15392;48.912;8.380;2024-03-17T17:48:41;18.50;50.50
28087;DHT22;15392;48.912;8.380;2024-03-17T17:51:30;18.40;50.50
28087;DHT22;15392;48.912;8.380;2024-03-17T17:54:18;18.30;50.60